createdAt,value
2023-05-25T00:01:38.452Z,14.30
2023-05-25T00:04:06.155Z,14.20
2023-05-25T00:06:37.389Z,14.20
2023-05-25T00:09:04.900Z,14.20
2023-05-25T00:11:32.383Z,14.20
2023-05-25T00:13:59.769Z,14.10
2023-05-25T00:16:27.205Z,14.10
2023-05-25T00:18:57.398Z,14.10
2023-05-25T00:21:25.819Z,14.10
2023-05-25T00:23:53.320Z,14.10
2023-05-25T00:26:20.779Z,14.10
2023-05-25T00:28:48.225Z,14.10
2023-05-25T00:31:15.718Z,14.00
2023-05-25T00:33:43.359Z,14.00
2023-05-25T00:36:11.938Z,14.00
2023-05-25T00:38:39.361Z,14.00
2023-05-25T00:41:06.821Z,14.00
2023-05-25T00:43:34.304Z,14.00
2023-05-25T00:46:02.825Z,14.00
2023-05-25T00:48:30.344Z,13.90
2023-05-25T00:51:00.485Z,13.90
2023-05-25T00:53:28.030Z,13.90
2023-05-25T00:56:04.359Z,13.90
2023-05-25T00:58:33.787Z,13.90
2023-05-25T01:01:02.016Z,13.80
2023-05-25T01:03:31.523Z,13.80
2023-05-25T01:05:59.345Z,13.70
2023-05-25T01:08:26.993Z,13.80
2023-05-25T01:10:55.990Z,13.70
2023-05-25T01:13:23.497Z,13.70
2023-05-25T01:15:51.252Z,13.70
2023-05-25T01:18:18.938Z,13.60
2023-05-25T01:20:58.634Z,13.60
2023-05-25T01:23:28.900Z,13.60
2023-05-25T01:25:59.320Z,13.60
2023-05-25T01:28:36.155Z,13.60
2023-05-25T01:31:03.689Z,13.60
2023-05-25T01:33:32.033Z,13.60
2023-05-25T01:36:00.359Z,13.60
2023-05-25T01:38:27.872Z,13.60
2023-05-25T01:40:55.600Z,13.50
2023-05-25T01:43:23.226Z,13.50
2023-05-25T01:45:52.979Z,13.60
2023-05-25T01:48:39.209Z,13.60
2023-05-25T01:51:32.334Z,13.50
2023-05-25T01:54:03.178Z,13.40
2023-05-25T01:56:30.944Z,13.40
2023-05-25T01:58:59.069Z,13.40
2023-05-25T02:01:27.781Z,13.40
2023-05-25T02:03:56.336Z,13.40
2023-05-25T02:06:23.787Z,13.40
2023-05-25T02:08:51.350Z,13.40
2023-05-25T02:11:18.911Z,13.40
2023-05-25T02:13:46.386Z,13.40
2023-05-25T02:16:13.884Z,13.40
2023-05-25T02:18:44.646Z,13.40
2023-05-25T02:21:12.514Z,13.40
2023-05-25T02:23:39.960Z,13.40
2023-05-25T02:26:07.353Z,13.40
2023-05-25T02:28:34.872Z,13.40
2023-05-25T02:31:02.426Z,13.40
2023-05-25T02:33:29.938Z,13.40
2023-05-25T02:35:57.400Z,13.50
2023-05-25T02:38:24.836Z,13.50
2023-05-25T02:40:52.283Z,13.50
2023-05-25T02:43:19.725Z,13.60
2023-05-25T02:45:47.154Z,13.50
2023-05-25T02:48:14.580Z,13.60
2023-05-25T02:50:42.034Z,13.60
2023-05-25T02:53:09.455Z,13.60
2023-05-25T02:55:40.470Z,13.60
2023-05-25T02:58:08.081Z,13.50
2023-05-25T03:00:35.566Z,13.50
2023-05-25T03:03:03.110Z,13.50
2023-05-25T03:05:30.700Z,13.50
2023-05-25T03:07:58.118Z,13.50
2023-05-25T03:10:25.772Z,13.50
2023-05-25T03:12:53.206Z,13.40
2023-05-25T03:15:21.010Z,13.50
2023-05-25T03:17:48.793Z,13.50
2023-05-25T03:20:16.837Z,13.50
2023-05-25T03:22:44.332Z,13.40
2023-05-25T03:25:13.117Z,13.50
2023-05-25T03:27:40.564Z,13.50
2023-05-25T03:30:08.361Z,13.50
2023-05-25T03:32:36.270Z,13.50
2023-05-25T03:35:04.831Z,13.50
2023-05-25T03:37:32.797Z,13.60
2023-05-25T03:40:00.306Z,13.60
2023-05-25T03:42:28.198Z,13.60
2023-05-25T03:44:55.872Z,13.50
2023-05-25T03:47:23.298Z,13.50
2023-05-25T03:49:51.015Z,13.50
2023-05-25T03:52:18.574Z,13.60
2023-05-25T03:54:46.127Z,13.60
2023-05-25T03:57:13.542Z,13.60
2023-05-25T03:59:40.982Z,13.60
2023-05-25T04:02:08.384Z,13.60
2023-05-25T04:04:38.414Z,13.70
2023-05-25T04:07:05.790Z,13.70
2023-05-25T04:09:33.386Z,13.70
2023-05-25T04:12:02.209Z,13.70
2023-05-25T04:14:29.700Z,13.60
2023-05-25T04:16:57.245Z,13.70
2023-05-25T04:19:24.674Z,13.70
2023-05-25T04:21:52.062Z,13.70
2023-05-25T04:24:19.506Z,13.70
2023-05-25T04:26:47.155Z,13.70
2023-05-25T04:29:14.542Z,13.80
2023-05-25T04:31:43.416Z,13.80
2023-05-25T04:34:11.042Z,13.80
2023-05-25T04:36:38.964Z,13.70
2023-05-25T04:39:07.476Z,13.70
2023-05-25T04:41:35.976Z,13.80
2023-05-25T04:44:09.723Z,13.70
2023-05-25T04:46:39.105Z,13.70
2023-05-25T04:49:08.574Z,13.80
2023-05-25T04:51:37.144Z,13.70
2023-05-25T04:54:06.034Z,13.70
2023-05-25T04:56:33.501Z,13.70
2023-05-25T04:59:00.950Z,13.80
2023-05-25T05:01:29.264Z,13.80
2023-05-25T05:03:57.008Z,13.80
2023-05-25T05:06:25.766Z,13.80
2023-05-25T05:08:53.229Z,13.80
2023-05-25T05:11:20.827Z,13.90
2023-05-25T05:13:48.401Z,13.90
2023-05-25T05:16:15.913Z,13.90
2023-05-25T05:18:43.462Z,14.00
2023-05-25T05:21:11.529Z,13.90
2023-05-25T05:23:39.092Z,13.90
2023-05-25T05:26:10.973Z,13.90
2023-05-25T05:28:38.475Z,13.90
2023-05-25T05:31:06.842Z,13.90
2023-05-25T05:33:34.654Z,13.90
2023-05-25T05:36:03.341Z,14.00
2023-05-25T05:38:31.201Z,14.00
2023-05-25T05:40:58.696Z,14.10
2023-05-25T05:43:26.187Z,14.10
2023-05-25T05:45:53.516Z,14.10
2023-05-25T05:48:20.765Z,14.10
2023-05-25T05:50:48.237Z,14.10
2023-05-25T05:53:15.704Z,14.10
2023-05-25T05:55:43.410Z,14.20
2023-05-25T05:58:11.051Z,14.20
2023-05-25T06:00:38.524Z,14.10
2023-05-25T06:03:06.040Z,14.20
2023-05-25T06:05:33.536Z,14.20
2023-05-25T06:08:01.206Z,14.20
2023-05-25T06:10:28.859Z,14.30
2023-05-25T06:12:57.516Z,14.20
2023-05-25T06:15:28.841Z,14.30
2023-05-25T06:17:56.857Z,14.20
2023-05-25T06:20:24.393Z,14.20
2023-05-25T06:22:55.133Z,14.30
2023-05-25T06:25:22.718Z,14.30
2023-05-25T06:27:50.657Z,14.30
2023-05-25T06:30:18.164Z,14.30
2023-05-25T06:32:46.271Z,14.30
2023-05-25T06:35:19.647Z,14.30
2023-05-25T06:37:48.618Z,14.30
2023-05-25T06:40:16.609Z,14.30
2023-05-25T06:42:44.090Z,14.40
2023-05-25T06:45:11.898Z,14.40
2023-05-25T06:47:39.521Z,14.50
2023-05-25T06:50:07.878Z,14.50
2023-05-25T06:52:35.870Z,14.60
2023-05-25T06:55:04.074Z,14.50
2023-05-25T06:57:31.657Z,14.70
2023-05-25T06:59:59.120Z,14.70
2023-05-25T07:02:27.073Z,14.70
2023-05-25T07:04:55.731Z,14.70
2023-05-25T07:07:23.326Z,14.70
2023-05-25T07:09:51.622Z,14.70
2023-05-25T07:12:19.419Z,14.80
2023-05-25T07:14:49.057Z,14.90
2023-05-25T07:17:18.214Z,15.00
2023-05-25T07:19:46.336Z,14.90
2023-05-25T07:22:15.885Z,14.90
2023-05-25T07:24:43.642Z,15.00
2023-05-25T07:27:11.394Z,15.00
2023-05-25T07:29:39.011Z,15.10
2023-05-25T07:32:07.036Z,15.20
2023-05-25T07:34:34.971Z,15.20
2023-05-25T07:37:02.457Z,15.20
2023-05-25T07:39:30.154Z,15.20
2023-05-25T07:41:57.961Z,15.30
2023-05-25T07:44:26.122Z,15.40
2023-05-25T07:46:53.900Z,15.30
2023-05-25T07:49:22.090Z,15.30
2023-05-25T07:51:50.230Z,15.40
2023-05-25T07:54:18.638Z,15.40
2023-05-25T07:56:46.371Z,15.40
2023-05-25T07:59:14.448Z,15.50
2023-05-25T08:01:42.702Z,15.50
2023-05-25T08:04:10.903Z,15.50
2023-05-25T08:06:38.615Z,15.50
2023-05-25T08:09:07.971Z,15.60
2023-05-25T08:11:35.476Z,15.60
2023-05-25T08:14:02.938Z,15.60
2023-05-25T08:16:30.575Z,15.70
2023-05-25T08:18:59.733Z,15.80
2023-05-25T08:21:27.250Z,15.90
2023-05-25T08:23:54.803Z,15.90
2023-05-25T08:28:53.501Z,16.10
2023-05-25T08:31:20.989Z,16.20
2023-05-25T08:33:48.456Z,16.30
2023-05-25T08:36:16.192Z,16.40
2023-05-25T08:38:43.667Z,16.40
2023-05-25T08:41:12.039Z,16.30
2023-05-25T08:43:41.606Z,16.40
2023-05-25T08:46:09.456Z,16.30
2023-05-25T08:48:41.544Z,16.20
2023-05-25T08:51:11.721Z,16.20
2023-05-25T08:53:40.861Z,16.20
2023-05-25T08:56:14.250Z,16.30
2023-05-25T08:58:45.517Z,16.40
2023-05-25T09:01:15.492Z,16.40
2023-05-25T09:03:44.504Z,16.40
2023-05-25T09:06:12.564Z,16.50
2023-05-25T09:08:40.054Z,16.60
2023-05-25T09:11:07.892Z,16.50
2023-05-25T09:13:36.320Z,16.50
2023-05-25T09:16:03.892Z,16.40
2023-05-25T09:18:31.537Z,16.50
2023-05-25T09:20:59.112Z,16.50
2023-05-25T09:23:26.651Z,16.50
2023-05-25T09:25:54.442Z,16.50
2023-05-25T09:30:52.594Z,16.40
2023-05-25T09:33:20.292Z,16.50
2023-05-25T09:35:48.000Z,16.60
2023-05-25T09:38:16.772Z,16.50
2023-05-25T09:40:45.180Z,16.50
2023-05-25T09:43:17.241Z,16.60
2023-05-25T09:45:51.996Z,16.60
2023-05-25T09:48:19.846Z,16.50
2023-05-25T09:50:49.739Z,16.60
2023-05-25T09:53:18.825Z,16.70
2023-05-25T09:55:54.736Z,16.80
2023-05-25T09:58:23.124Z,16.90
2023-05-25T10:00:54.628Z,17.10
2023-05-25T10:03:22.520Z,17.30
2023-05-25T10:05:50.432Z,17.60
2023-05-25T10:08:19.900Z,17.70
2023-05-25T10:10:49.960Z,17.80
2023-05-25T10:13:21.978Z,17.80
2023-05-25T10:15:51.501Z,17.80
2023-05-25T10:18:22.164Z,17.80
2023-05-25T10:20:52.667Z,17.70
2023-05-25T10:23:20.656Z,17.60
2023-05-25T10:25:51.114Z,17.70
2023-05-25T10:28:35.709Z,17.70
2023-05-25T10:31:03.619Z,17.80
2023-05-25T10:33:32.216Z,17.80
2023-05-25T10:36:09.114Z,17.80
2023-05-25T10:38:39.258Z,17.90
2023-05-25T10:41:08.905Z,17.90
2023-05-25T10:43:37.197Z,17.90
2023-05-25T10:46:06.201Z,17.90
2023-05-25T10:48:37.624Z,17.80
2023-05-25T10:51:05.819Z,17.70
2023-05-25T10:53:33.289Z,17.60
2023-05-25T10:56:02.363Z,17.60
2023-05-25T10:58:30.108Z,17.50
2023-05-25T11:01:06.837Z,17.30
2023-05-25T11:03:43.789Z,17.20
2023-05-25T11:06:11.629Z,17.20
2023-05-25T11:08:49.237Z,17.20
2023-05-25T11:11:17.070Z,17.30
2023-05-25T11:13:45.312Z,17.30
2023-05-25T11:16:29.436Z,17.40
2023-05-25T11:18:58.979Z,17.40
2023-05-25T11:21:27.167Z,17.50
2023-05-25T11:24:02.948Z,17.60
2023-05-25T11:26:32.542Z,17.60
2023-05-25T11:29:00.908Z,17.60
2023-05-25T11:31:31.434Z,17.60
2023-05-25T11:34:04.861Z,17.60
2023-05-25T11:36:34.125Z,17.70
2023-05-25T11:39:06.688Z,17.90
2023-05-25T11:41:46.716Z,18.10
2023-05-25T11:44:14.203Z,18.00
2023-05-25T11:46:43.685Z,18.00
2023-05-25T11:49:11.452Z,18.10
2023-05-25T11:51:39.562Z,18.20
2023-05-25T11:54:07.019Z,18.20
2023-05-25T11:56:36.176Z,18.20
2023-05-25T11:59:07.397Z,18.20
2023-05-25T12:01:34.819Z,18.30
2023-05-25T12:04:08.408Z,18.10
2023-05-25T12:06:39.051Z,18.20
2023-05-25T12:09:11.070Z,18.20
2023-05-25T12:11:38.844Z,18.20
2023-05-25T12:14:07.511Z,18.20
2023-05-25T12:16:36.982Z,18.20
2023-05-25T12:19:05.196Z,18.30
2023-05-25T12:21:33.326Z,18.40
2023-05-25T12:24:01.549Z,18.30
2023-05-25T12:26:29.531Z,18.30
2023-05-25T12:29:00.992Z,18.30
2023-05-25T12:31:29.434Z,18.30
2023-05-25T12:34:10.722Z,18.50
2023-05-25T12:36:39.157Z,18.50
2023-05-25T12:39:07.546Z,18.40
2023-05-25T12:41:47.284Z,18.40
2023-05-25T12:44:22.982Z,18.50
2023-05-25T12:46:55.175Z,18.50
2023-05-25T12:49:22.731Z,18.50
2023-05-25T12:51:50.244Z,18.50
2023-05-25T12:54:32.998Z,18.50
2023-05-25T12:57:02.622Z,18.30
2023-05-25T12:59:31.372Z,18.10
2023-05-25T13:01:59.185Z,18.00
2023-05-25T13:04:27.259Z,18.00
2023-05-25T13:06:55.674Z,18.00
2023-05-25T13:09:23.935Z,18.10
2023-05-25T13:11:51.433Z,18.00
2023-05-25T13:14:19.188Z,18.10
2023-05-25T13:16:46.870Z,18.00
2023-05-25T13:19:14.376Z,18.20
2023-05-25T13:21:41.869Z,18.50
2023-05-25T13:24:09.327Z,18.60
2023-05-25T13:26:36.818Z,18.50
2023-05-25T13:29:04.277Z,18.50
2023-05-25T13:31:31.830Z,18.50
2023-05-25T13:33:59.350Z,18.40
2023-05-25T13:36:26.857Z,18.20
2023-05-25T13:38:55.512Z,18.10
2023-05-25T13:41:23.063Z,18.10
2023-05-25T13:43:50.484Z,18.40
2023-05-25T13:46:33.662Z,18.90
2023-05-25T13:49:02.437Z,19.10
2023-05-25T13:51:29.874Z,18.90
2023-05-25T13:53:57.344Z,18.70
2023-05-25T13:56:24.808Z,18.50
2023-05-25T13:58:52.282Z,18.60
2023-05-25T14:01:20.129Z,18.80
2023-05-25T14:03:47.971Z,19.00
2023-05-25T14:06:15.500Z,18.90
2023-05-25T14:08:42.968Z,18.80
2023-05-25T14:11:10.411Z,18.60
2023-05-25T14:13:38.807Z,18.40
2023-05-25T14:16:06.984Z,18.20
2023-05-25T14:18:34.448Z,18.10
2023-05-25T14:21:01.945Z,18.10
2023-05-25T14:23:29.407Z,18.00
2023-05-25T14:25:56.959Z,18.00
2023-05-25T14:28:24.443Z,17.80
2023-05-25T14:30:53.279Z,17.80
2023-05-25T14:33:20.867Z,17.80
2023-05-25T14:35:48.308Z,17.70
2023-05-25T14:38:15.766Z,17.70
2023-05-25T14:40:43.152Z,17.70
2023-05-25T14:43:10.599Z,17.60
2023-05-25T14:45:37.986Z,17.70
2023-05-25T14:48:15.830Z,17.70
2023-05-25T14:50:45.223Z,17.90
2023-05-25T14:53:12.868Z,17.90
2023-05-25T14:55:41.223Z,17.90
2023-05-25T14:58:09.380Z,17.90
2023-05-25T15:00:37.064Z,18.00
2023-05-25T15:03:05.558Z,18.00
2023-05-25T15:05:33.136Z,18.00
2023-05-25T15:08:00.708Z,17.90
2023-05-25T15:10:29.879Z,17.80
2023-05-25T15:12:57.624Z,17.70
2023-05-25T15:15:28.062Z,17.50
2023-05-25T15:17:55.724Z,17.40
2023-05-25T15:20:23.284Z,17.40
2023-05-25T15:22:53.727Z,17.40
2023-05-25T15:25:35.116Z,17.50
2023-05-25T15:28:03.374Z,17.50
2023-05-25T15:30:34.367Z,17.40
2023-05-25T15:33:02.022Z,17.50
2023-05-25T15:35:32.595Z,17.50
2023-05-25T15:38:00.444Z,17.50
2023-05-25T15:40:27.928Z,17.50
2023-05-25T15:42:55.462Z,17.50
2023-05-25T15:45:22.955Z,17.50
2023-05-25T15:47:50.642Z,17.50
2023-05-25T15:50:18.132Z,17.60
2023-05-25T15:52:46.742Z,17.50
2023-05-25T15:55:14.381Z,17.50
2023-05-25T15:57:41.826Z,17.40
2023-05-25T16:00:09.518Z,17.30
2023-05-25T16:02:37.087Z,17.40
2023-05-25T16:05:07.105Z,17.60
2023-05-25T16:07:34.579Z,17.50
2023-05-25T16:10:02.576Z,17.40
2023-05-25T16:12:30.226Z,17.40
2023-05-25T16:14:57.627Z,17.40
2023-05-25T16:17:25.272Z,17.30
2023-05-25T16:19:52.733Z,17.20
2023-05-25T16:22:20.228Z,17.10
2023-05-25T16:24:48.135Z,17.20
2023-05-25T16:27:15.596Z,17.10
2023-05-25T16:29:43.080Z,17.00
2023-05-25T16:32:10.714Z,17.00
2023-05-25T16:34:38.216Z,16.90
2023-05-25T16:37:05.642Z,16.90
2023-05-25T16:39:33.412Z,16.90
2023-05-25T16:42:00.896Z,16.80
2023-05-25T16:44:28.462Z,16.80
2023-05-25T16:46:55.934Z,16.80
2023-05-25T16:49:23.323Z,16.80
2023-05-25T16:51:50.741Z,16.80
2023-05-25T16:54:18.171Z,16.90
2023-05-25T16:56:46.225Z,16.90
2023-05-25T16:59:13.667Z,16.80
2023-05-25T17:01:41.317Z,16.70
2023-05-25T17:04:08.927Z,16.60
2023-05-25T17:06:36.828Z,16.60
2023-05-25T17:09:04.286Z,16.50
2023-05-25T17:11:31.784Z,16.50
2023-05-25T17:13:59.219Z,16.60
2023-05-25T17:16:26.728Z,16.30
2023-05-25T17:18:54.213Z,16.60
2023-05-25T17:21:21.697Z,16.70
2023-05-25T17:23:49.342Z,16.80
2023-05-25T17:26:16.906Z,16.80
2023-05-25T17:28:44.472Z,16.80
2023-05-25T17:31:12.038Z,16.80
2023-05-25T17:33:39.507Z,16.80
2023-05-25T17:36:07.068Z,16.80
2023-05-25T17:38:37.002Z,16.80
2023-05-25T17:41:04.597Z,16.80
2023-05-25T17:43:32.210Z,16.80
2023-05-25T17:45:59.707Z,16.80
2023-05-25T17:48:27.357Z,16.80
2023-05-25T17:50:54.801Z,16.80
2023-05-25T17:53:22.214Z,16.80
2023-05-25T17:55:49.640Z,16.70
2023-05-25T17:58:17.036Z,16.60
2023-05-25T18:00:44.512Z,16.50
2023-05-25T18:03:12.053Z,16.50
2023-05-25T18:05:39.546Z,16.50
2023-05-25T18:08:06.965Z,16.40
2023-05-25T18:10:34.387Z,16.30
2023-05-25T18:13:01.898Z,16.40
2023-05-25T18:15:29.477Z,16.30
2023-05-25T18:17:57.016Z,16.30
2023-05-25T18:20:24.723Z,16.20
2023-05-25T18:22:52.268Z,16.20
2023-05-25T18:25:19.795Z,16.20
2023-05-25T18:27:47.886Z,16.10
2023-05-25T18:30:15.441Z,16.10
2023-05-25T18:32:42.944Z,16.00
2023-05-25T18:35:10.619Z,16.00
2023-05-25T18:37:38.144Z,15.90
2023-05-25T18:40:06.168Z,15.80
2023-05-25T18:42:34.915Z,15.80
2023-05-25T18:45:02.488Z,15.70
2023-05-25T18:47:30.110Z,15.60
2023-05-25T18:49:57.652Z,15.60
2023-05-25T18:52:25.081Z,15.60
2023-05-25T18:54:52.767Z,15.60
2023-05-25T18:57:20.226Z,15.50
2023-05-25T18:59:47.715Z,15.50
2023-05-25T19:02:15.177Z,15.50
2023-05-25T19:04:42.806Z,15.50
2023-05-25T19:07:10.342Z,15.50
2023-05-25T19:09:37.844Z,15.50
2023-05-25T19:12:07.165Z,15.40
2023-05-25T19:14:34.604Z,15.40
2023-05-25T19:17:02.079Z,15.40
2023-05-25T19:19:29.524Z,15.40
2023-05-25T19:21:57.264Z,15.30
2023-05-25T19:24:24.708Z,15.30
2023-05-25T19:26:52.628Z,15.30
2023-05-25T19:29:20.955Z,15.20
2023-05-25T19:31:48.515Z,15.30
2023-05-25T19:34:16.037Z,15.20
2023-05-25T19:36:43.518Z,15.30
2023-05-25T19:39:11.118Z,15.20
2023-05-25T19:41:38.554Z,15.20
2023-05-25T19:44:06.062Z,15.10
2023-05-25T19:46:33.660Z,15.10
2023-05-25T19:49:01.501Z,15.10
2023-05-25T19:51:28.968Z,15.00
2023-05-25T19:53:58.113Z,15.10
2023-05-25T19:56:27.697Z,15.00
2023-05-25T19:58:55.396Z,15.00
2023-05-25T20:01:22.980Z,15.00
2023-05-25T20:03:50.839Z,14.90
2023-05-25T20:06:20.302Z,14.90
2023-05-25T20:08:51.786Z,14.90
2023-05-25T20:11:24.561Z,14.90
2023-05-25T20:13:55.421Z,14.90
2023-05-25T20:16:25.428Z,14.90
2023-05-25T20:18:54.794Z,14.90
2023-05-25T20:21:23.476Z,14.90
2023-05-25T20:23:52.187Z,14.80
2023-05-25T20:26:21.087Z,14.80
2023-05-25T20:28:48.792Z,14.80
2023-05-25T20:31:17.368Z,14.80
2023-05-25T20:33:45.848Z,14.80
2023-05-25T20:36:15.664Z,14.80
2023-05-25T20:38:44.534Z,14.70
2023-05-25T20:41:12.437Z,14.70
2023-05-25T20:43:40.693Z,14.60
2023-05-25T20:46:09.366Z,14.60
2023-05-25T20:48:39.233Z,14.60
2023-05-25T20:51:06.685Z,14.60
2023-05-25T20:53:35.079Z,14.60
2023-05-25T20:56:04.390Z,14.50
2023-05-25T20:58:32.507Z,14.50
2023-05-25T21:00:59.964Z,14.50
2023-05-25T21:03:27.611Z,14.40
2023-05-25T21:05:56.388Z,14.40
2023-05-25T21:08:24.901Z,14.40
2023-05-25T21:10:52.380Z,14.40
2023-05-25T21:13:19.886Z,14.40
2023-05-25T21:15:47.642Z,14.30
2023-05-25T21:18:15.853Z,14.30
2023-05-25T21:20:44.915Z,14.30
2023-05-25T21:23:12.958Z,14.30
2023-05-25T21:25:40.610Z,14.20
2023-05-25T21:28:09.226Z,14.20
2023-05-25T21:30:36.716Z,14.20
2023-05-25T21:33:05.031Z,14.10
2023-05-25T21:35:33.128Z,14.20
2023-05-25T21:38:00.776Z,14.20
2023-05-25T21:40:29.129Z,14.10
2023-05-25T21:42:56.563Z,14.00
2023-05-25T21:45:25.097Z,14.00
2023-05-25T21:47:53.475Z,14.00
2023-05-25T21:50:21.149Z,14.00
2023-05-25T21:52:48.565Z,14.00
2023-05-25T21:55:15.982Z,13.90
2023-05-25T21:57:43.392Z,14.00
2023-05-25T22:00:12.761Z,14.00
2023-05-25T22:02:41.084Z,13.90
2023-05-25T22:05:08.675Z,13.80
2023-05-25T22:07:36.115Z,13.80
2023-05-25T22:10:03.930Z,13.80
2023-05-25T22:12:31.474Z,13.70
2023-05-25T22:14:59.026Z,13.70
2023-05-25T22:17:26.500Z,13.70
2023-05-25T22:20:06.688Z,13.60
2023-05-25T22:22:35.745Z,13.60
2023-05-25T22:25:03.864Z,13.60
2023-05-25T22:27:31.901Z,13.60
2023-05-25T22:29:59.367Z,13.50
2023-05-25T22:32:27.378Z,13.50
2023-05-25T22:34:56.768Z,13.40
2023-05-25T22:37:24.200Z,13.40
2023-05-25T22:39:52.145Z,13.30
2023-05-25T22:42:19.663Z,13.30
2023-05-25T22:44:49.214Z,13.30
2023-05-25T22:47:16.715Z,13.30
2023-05-25T22:49:44.651Z,13.20
2023-05-25T22:52:12.284Z,13.20
2023-05-25T22:54:39.865Z,13.20
2023-05-25T22:57:08.749Z,13.10
2023-05-25T22:59:36.196Z,13.10
2023-05-25T23:02:03.887Z,13.00
2023-05-25T23:04:31.594Z,12.90
2023-05-25T23:06:59.121Z,12.80
2023-05-25T23:09:28.765Z,12.80
2023-05-25T23:11:56.152Z,12.70
2023-05-25T23:14:23.639Z,12.60
2023-05-25T23:16:51.211Z,12.60
2023-05-25T23:19:19.906Z,12.50
2023-05-25T23:21:48.343Z,12.50
2023-05-25T23:24:16.173Z,12.40
2023-05-25T23:26:43.625Z,12.30
2023-05-25T23:29:11.207Z,12.30
2023-05-25T23:31:38.731Z,12.20
2023-05-25T23:34:06.190Z,12.20
2023-05-25T23:36:33.807Z,12.20
2023-05-25T23:39:01.356Z,12.10
2023-05-25T23:41:29.038Z,12.10
2023-05-25T23:43:56.617Z,12.10
2023-05-25T23:46:25.143Z,12.10
2023-05-25T23:48:52.614Z,12.00
2023-05-25T23:51:20.147Z,12.00
2023-05-25T23:53:47.552Z,12.00
2023-05-25T23:56:15.043Z,11.90
2023-05-25T23:58:43.363Z,11.90
